sensor_id;sensor_type;location;lat;lon;timestamp;P1;durP1;ratioP1;P2;durP2;ratioP2
13951;SDS011;39535;52.192;9.886;2022-08-06T00:02:15;0.60;;;0.60;;
13951;SDS011;39535;52.192;9.886;2022-08-06T00:04:42;0.77;;;0.77;;
13951;SDS011;39535;52.192;9.886;2022-08-06T00:07:08;1.77;;;0.70;;
13951;SDS011;39535;52.192;9.886;2022-08-06T00:09:34;1.90;;;0.77;;
13951;SDS011;39535;52.192;9.886;2022-08-06T00:12:02;1.60;;;0.90;;
13951;SDS011;39535;52.192;9.886;2022-08-06T00:14:29;1.10;;;0.93;;
13951;SDS011;39535;52.192;9.886;2022-08-06T00:16:57;1.13;;;1.00;;
13951;SDS011;39535;52.192;9.886;2022-08-06T00:19:25;1.53;;;0.97;;
13951;SDS011;39535;52.192;9.886;2022-08-06T00:21:52;1.07;;;0.83;;
13951;SDS011;39535;52.192;9.886;2022-08-06T00:24:19;1.30;;;0.90;;
13951;SDS011;39535;52.192;9.886;2022-08-06T00:26:46;4.53;;;1.00;;
13951;SDS011;39535;52.192;9.886;2022-08-06T00:29:13;0.60;;;0.60;;
13951;SDS011;39535;52.192;9.886;2022-08-06T00:31:40;0.93;;;0.80;;
13951;SDS011;39535;52.192;9.886;2022-08-06T00:34:06;0.80;;;0.80;;
13951;SDS011;39535;52.192;9.886;2022-08-06T00:36:34;4.80;;;0.90;;
13951;SDS011;39535;52.192;9.886;2022-08-06T00:39:02;1.33;;;0.70;;
13951;SDS011;39535;52.192;9.886;2022-08-06T00:41:30;1.07;;;0.60;;
13951;SDS011;39535;52.192;9.886;2022-08-06T00:43:57;1.40;;;0.60;;
13951;SDS011;39535;52.192;9.886;2022-08-06T00:46:24;1.77;;;0.60;;
13951;SDS011;39535;52.192;9.886;2022-08-06T00:48:51;3.13;;;0.70;;
13951;SDS011;39535;52.192;9.886;2022-08-06T00:51:17;1.33;;;0.90;;
13951;SDS011;39535;52.192;9.886;2022-08-06T00:53:45;0.90;;;0.60;;
13951;SDS011;39535;52.192;9.886;2022-08-06T00:56:12;1.43;;;0.80;;
13951;SDS011;39535;52.192;9.886;2022-08-06T00:58:38;0.60;;;0.60;;
13951;SDS011;39535;52.192;9.886;2022-08-06T01:01:05;1.13;;;0.60;;
13951;SDS011;39535;52.192;9.886;2022-08-06T01:03:31;1.70;;;0.60;;
13951;SDS011;39535;52.192;9.886;2022-08-06T01:05:58;2.00;;;0.90;;
13951;SDS011;39535;52.192;9.886;2022-08-06T01:08:24;0.97;;;0.60;;
13951;SDS011;39535;52.192;9.886;2022-08-06T01:10:52;1.17;;;0.73;;
13951;SDS011;39535;52.192;9.886;2022-08-06T01:13:18;0.60;;;0.60;;
13951;SDS011;39535;52.192;9.886;2022-08-06T01:15:46;1.27;;;0.60;;
13951;SDS011;39535;52.192;9.886;2022-08-06T01:18:18;1.33;;;0.77;;
13951;SDS011;39535;52.192;9.886;2022-08-06T01:23:45;1.20;;;0.70;;
13951;SDS011;39535;52.192;9.886;2022-08-06T01:26:40;1.00;;;0.50;;
13951;SDS011;39535;52.192;9.886;2022-08-06T01:29:15;1.20;;;0.70;;
13951;SDS011;39535;52.192;9.886;2022-08-06T01:31:47;1.10;;;0.70;;
13951;SDS011;39535;52.192;9.886;2022-08-06T01:34:18;1.00;;;0.60;;
13951;SDS011;39535;52.192;9.886;2022-08-06T01:36:50;1.50;;;0.90;;
13951;SDS011;39535;52.192;9.886;2022-08-06T01:39:23;1.80;;;0.90;;
13951;SDS011;39535;52.192;9.886;2022-08-06T01:41:52;1.00;;;0.80;;
13951;SDS011;39535;52.192;9.886;2022-08-06T01:44:22;0.83;;;0.70;;
13951;SDS011;39535;52.192;9.886;2022-08-06T01:46:52;1.03;;;0.90;;
13951;SDS011;39535;52.192;9.886;2022-08-06T01:49:24;0.60;;;0.60;;
13951;SDS011;39535;52.192;9.886;2022-08-06T01:51:54;1.50;;;0.80;;
13951;SDS011;39535;52.192;9.886;2022-08-06T01:54:23;2.10;;;0.73;;
13951;SDS011;39535;52.192;9.886;2022-08-06T01:56:52;3.73;;;0.93;;
13951;SDS011;39535;52.192;9.886;2022-08-06T01:59:24;0.73;;;0.63;;
13951;SDS011;39535;52.192;9.886;2022-08-06T02:01:56;7.90;;;1.00;;
13951;SDS011;39535;52.192;9.886;2022-08-06T02:04:26;0.87;;;0.80;;
13951;SDS011;39535;52.192;9.886;2022-08-06T02:06:56;1.33;;;0.80;;
13951;SDS011;39535;52.192;9.886;2022-08-06T02:09:26;1.67;;;0.90;;
13951;SDS011;39535;52.192;9.886;2022-08-06T02:11:55;1.77;;;0.80;;
13951;SDS011;39535;52.192;9.886;2022-08-06T02:14:26;1.40;;;0.80;;
13951;SDS011;39535;52.192;9.886;2022-08-06T02:16:56;3.20;;;0.70;;
13951;SDS011;39535;52.192;9.886;2022-08-06T02:19:27;0.97;;;0.80;;
13951;SDS011;39535;52.192;9.886;2022-08-06T02:21:55;1.07;;;0.80;;
13951;SDS011;39535;52.192;9.886;2022-08-06T02:24:24;1.60;;;0.80;;
13951;SDS011;39535;52.192;9.886;2022-08-06T02:26:54;1.43;;;0.70;;
13951;SDS011;39535;52.192;9.886;2022-08-06T02:29:22;2.10;;;0.90;;
13951;SDS011;39535;52.192;9.886;2022-08-06T02:31:52;1.80;;;0.93;;
13951;SDS011;39535;52.192;9.886;2022-08-06T02:34:20;0.70;;;0.70;;
13951;SDS011;39535;52.192;9.886;2022-08-06T02:36:49;1.83;;;0.90;;
13951;SDS011;39535;52.192;9.886;2022-08-06T02:39:22;1.30;;;0.90;;
13951;SDS011;39535;52.192;9.886;2022-08-06T02:41:56;2.10;;;0.80;;
13951;SDS011;39535;52.192;9.886;2022-08-06T02:44:31;1.23;;;0.63;;
13951;SDS011;39535;52.192;9.886;2022-08-06T02:47:06;1.37;;;0.90;;
13951;SDS011;39535;52.192;9.886;2022-08-06T02:49:36;3.37;;;0.90;;
13951;SDS011;39535;52.192;9.886;2022-08-06T02:52:08;1.83;;;0.90;;
13951;SDS011;39535;52.192;9.886;2022-08-06T02:54:41;3.67;;;1.23;;
13951;SDS011;39535;52.192;9.886;2022-08-06T02:57:12;1.07;;;0.77;;
13951;SDS011;39535;52.192;9.886;2022-08-06T02:59:45;2.27;;;1.20;;
13951;SDS011;39535;52.192;9.886;2022-08-06T03:02:16;1.40;;;0.87;;
13951;SDS011;39535;52.192;9.886;2022-08-06T03:04:47;0.80;;;0.80;;
13951;SDS011;39535;52.192;9.886;2022-08-06T03:07:14;1.53;;;0.73;;
13951;SDS011;39535;52.192;9.886;2022-08-06T03:09:43;2.07;;;0.80;;
13951;SDS011;39535;52.192;9.886;2022-08-06T03:12:14;1.20;;;1.00;;
13951;SDS011;39535;52.192;9.886;2022-08-06T03:14:42;1.97;;;1.33;;
13951;SDS011;39535;52.192;9.886;2022-08-06T03:17:11;0.80;;;0.73;;
13951;SDS011;39535;52.192;9.886;2022-08-06T03:19:39;3.03;;;1.00;;
13951;SDS011;39535;52.192;9.886;2022-08-06T03:22:09;2.80;;;0.83;;
13951;SDS011;39535;52.192;9.886;2022-08-06T03:24:37;1.13;;;0.80;;
13951;SDS011;39535;52.192;9.886;2022-08-06T03:27:05;2.40;;;1.00;;
13951;SDS011;39535;52.192;9.886;2022-08-06T03:29:34;1.93;;;0.90;;
13951;SDS011;39535;52.192;9.886;2022-08-06T03:32:01;2.20;;;0.90;;
13951;SDS011;39535;52.192;9.886;2022-08-06T03:34:29;1.07;;;0.70;;
13951;SDS011;39535;52.192;9.886;2022-08-06T03:36:57;0.93;;;0.60;;
13951;SDS011;39535;52.192;9.886;2022-08-06T03:39:26;1.83;;;0.77;;
13951;SDS011;39535;52.192;9.886;2022-08-06T03:41:54;1.43;;;0.70;;
13951;SDS011;39535;52.192;9.886;2022-08-06T03:44:22;1.33;;;0.80;;
13951;SDS011;39535;52.192;9.886;2022-08-06T03:46:55;1.27;;;0.90;;
13951;SDS011;39535;52.192;9.886;2022-08-06T03:49:28;0.70;;;0.70;;
13951;SDS011;39535;52.192;9.886;2022-08-06T03:52:00;0.80;;;0.63;;
13951;SDS011;39535;52.192;9.886;2022-08-06T03:54:28;0.93;;;0.83;;
13951;SDS011;39535;52.192;9.886;2022-08-06T03:56:59;1.10;;;1.00;;
13951;SDS011;39535;52.192;9.886;2022-08-06T03:59:28;2.90;;;1.00;;
13951;SDS011;39535;52.192;9.886;2022-08-06T04:01:57;1.23;;;1.10;;
13951;SDS011;39535;52.192;9.886;2022-08-06T04:04:26;2.53;;;0.83;;
13951;SDS011;39535;52.192;9.886;2022-08-06T04:06:54;0.90;;;0.90;;
13951;SDS011;39535;52.192;9.886;2022-08-06T04:09:24;1.33;;;1.07;;
13951;SDS011;39535;52.192;9.886;2022-08-06T04:11:51;1.57;;;1.47;;
13951;SDS011;39535;52.192;9.886;2022-08-06T04:14:19;2.20;;;1.27;;
13951;SDS011;39535;52.192;9.886;2022-08-06T04:16:48;1.53;;;1.07;;
13951;SDS011;39535;52.192;9.886;2022-08-06T04:19:16;1.00;;;1.00;;
13951;SDS011;39535;52.192;9.886;2022-08-06T04:21:44;2.43;;;1.33;;
13951;SDS011;39535;52.192;9.886;2022-08-06T04:24:11;4.03;;;1.17;;
13951;SDS011;39535;52.192;9.886;2022-08-06T04:26:39;1.07;;;0.80;;
13951;SDS011;39535;52.192;9.886;2022-08-06T04:29:09;0.97;;;0.97;;
13951;SDS011;39535;52.192;9.886;2022-08-06T04:31:38;1.27;;;0.80;;
13951;SDS011;39535;52.192;9.886;2022-08-06T04:34:08;1.83;;;1.40;;
13951;SDS011;39535;52.192;9.886;2022-08-06T04:36:34;1.40;;;1.00;;
13951;SDS011;39535;52.192;9.886;2022-08-06T04:39:01;1.17;;;0.90;;
13951;SDS011;39535;52.192;9.886;2022-08-06T04:41:28;1.13;;;0.80;;
13951;SDS011;39535;52.192;9.886;2022-08-06T04:43:55;2.57;;;0.90;;
13951;SDS011;39535;52.192;9.886;2022-08-06T04:46:22;1.13;;;1.00;;
13951;SDS011;39535;52.192;9.886;2022-08-06T04:48:49;1.73;;;1.00;;
13951;SDS011;39535;52.192;9.886;2022-08-06T04:51:16;1.73;;;0.87;;
13951;SDS011;39535;52.192;9.886;2022-08-06T04:53:42;1.37;;;0.90;;
13951;SDS011;39535;52.192;9.886;2022-08-06T04:56:09;1.67;;;1.10;;
13951;SDS011;39535;52.192;9.886;2022-08-06T04:58:35;1.20;;;1.10;;
13951;SDS011;39535;52.192;9.886;2022-08-06T05:01:03;1.90;;;1.10;;
13951;SDS011;39535;52.192;9.886;2022-08-06T05:03:30;1.00;;;1.00;;
13951;SDS011;39535;52.192;9.886;2022-08-06T05:05:59;1.63;;;1.00;;
13951;SDS011;39535;52.192;9.886;2022-08-06T05:08:28;0.80;;;0.80;;
13951;SDS011;39535;52.192;9.886;2022-08-06T05:11:00;3.20;;;1.17;;
13951;SDS011;39535;52.192;9.886;2022-08-06T05:13:29;1.43;;;0.90;;
13951;SDS011;39535;52.192;9.886;2022-08-06T05:16:00;1.47;;;0.90;;
13951;SDS011;39535;52.192;9.886;2022-08-06T05:18:33;1.10;;;0.90;;
13951;SDS011;39535;52.192;9.886;2022-08-06T05:21:02;2.40;;;1.00;;
13951;SDS011;39535;52.192;9.886;2022-08-06T05:23:32;1.20;;;1.00;;
13951;SDS011;39535;52.192;9.886;2022-08-06T05:26:03;3.97;;;1.10;;
13951;SDS011;39535;52.192;9.886;2022-08-06T05:28:30;4.57;;;1.30;;
13951;SDS011;39535;52.192;9.886;2022-08-06T05:30:57;1.87;;;1.20;;
13951;SDS011;39535;52.192;9.886;2022-08-06T05:33:24;2.87;;;0.80;;
13951;SDS011;39535;52.192;9.886;2022-08-06T05:35:53;1.03;;;0.97;;
13951;SDS011;39535;52.192;9.886;2022-08-06T05:38:19;1.73;;;1.30;;
13951;SDS011;39535;52.192;9.886;2022-08-06T05:40:46;1.33;;;0.93;;
13951;SDS011;39535;52.192;9.886;2022-08-06T05:43:13;0.90;;;0.83;;
13951;SDS011;39535;52.192;9.886;2022-08-06T05:45:39;1.80;;;0.70;;
13951;SDS011;39535;52.192;9.886;2022-08-06T05:48:07;1.27;;;0.83;;
13951;SDS011;39535;52.192;9.886;2022-08-06T05:50:37;2.13;;;1.10;;
13951;SDS011;39535;52.192;9.886;2022-08-06T05:53:11;1.37;;;1.07;;
13951;SDS011;39535;52.192;9.886;2022-08-06T05:55:45;0.93;;;0.93;;
13951;SDS011;39535;52.192;9.886;2022-08-06T05:58:17;0.80;;;0.80;;
13951;SDS011;39535;52.192;9.886;2022-08-06T06:00:49;0.90;;;0.90;;
13951;SDS011;39535;52.192;9.886;2022-08-06T06:03:17;1.03;;;1.00;;
13951;SDS011;39535;52.192;9.886;2022-08-06T06:05:44;1.67;;;1.00;;
13951;SDS011;39535;52.192;9.886;2022-08-06T06:08:13;1.60;;;1.30;;
13951;SDS011;39535;52.192;9.886;2022-08-06T06:10:40;1.10;;;1.00;;
13951;SDS011;39535;52.192;9.886;2022-08-06T06:13:10;1.10;;;1.00;;
13951;SDS011;39535;52.192;9.886;2022-08-06T06:15:38;1.47;;;1.07;;
13951;SDS011;39535;52.192;9.886;2022-08-06T06:18:12;1.60;;;0.97;;
13951;SDS011;39535;52.192;9.886;2022-08-06T06:20:52;2.23;;;1.23;;
13951;SDS011;39535;52.192;9.886;2022-08-06T06:23:36;1.77;;;1.00;;
13951;SDS011;39535;52.192;9.886;2022-08-06T06:26:10;1.70;;;1.27;;
13951;SDS011;39535;52.192;9.886;2022-08-06T06:28:44;1.47;;;1.37;;
13951;SDS011;39535;52.192;9.886;2022-08-06T06:31:21;1.90;;;1.17;;
13951;SDS011;39535;52.192;9.886;2022-08-06T06:33:55;1.67;;;1.40;;
13951;SDS011;39535;52.192;9.886;2022-08-06T06:36:29;1.27;;;1.17;;
13951;SDS011;39535;52.192;9.886;2022-08-06T06:39:02;1.27;;;1.13;;
13951;SDS011;39535;52.192;9.886;2022-08-06T06:41:32;1.20;;;1.10;;
13951;SDS011;39535;52.192;9.886;2022-08-06T06:44:04;2.33;;;1.33;;
13951;SDS011;39535;52.192;9.886;2022-08-06T06:46:39;2.07;;;1.30;;
13951;SDS011;39535;52.192;9.886;2022-08-06T06:49:13;3.17;;;1.03;;
13951;SDS011;39535;52.192;9.886;2022-08-06T06:51:43;1.30;;;1.20;;
13951;SDS011;39535;52.192;9.886;2022-08-06T06:54:17;1.20;;;1.10;;
13951;SDS011;39535;52.192;9.886;2022-08-06T06:56:48;1.50;;;1.10;;
13951;SDS011;39535;52.192;9.886;2022-08-06T06:59:18;1.13;;;1.10;;
13951;SDS011;39535;52.192;9.886;2022-08-06T07:01:48;1.73;;;1.20;;
13951;SDS011;39535;52.192;9.886;2022-08-06T07:04:16;1.13;;;1.03;;
13951;SDS011;39535;52.192;9.886;2022-08-06T07:06:44;1.27;;;1.10;;
13951;SDS011;39535;52.192;9.886;2022-08-06T07:09:14;1.17;;;1.07;;
13951;SDS011;39535;52.192;9.886;2022-08-06T07:11:44;1.20;;;0.90;;
13951;SDS011;39535;52.192;9.886;2022-08-06T07:14:11;1.20;;;1.03;;
13951;SDS011;39535;52.192;9.886;2022-08-06T07:16:39;2.30;;;1.27;;
13951;SDS011;39535;52.192;9.886;2022-08-06T07:19:07;1.13;;;1.00;;
13951;SDS011;39535;52.192;9.886;2022-08-06T07:21:36;1.13;;;0.93;;
13951;SDS011;39535;52.192;9.886;2022-08-06T07:24:05;2.83;;;1.20;;
13951;SDS011;39535;52.192;9.886;2022-08-06T07:26:32;1.00;;;1.00;;
13951;SDS011;39535;52.192;9.886;2022-08-06T07:29:01;1.07;;;0.97;;
13951;SDS011;39535;52.192;9.886;2022-08-06T07:31:28;6.67;;;1.23;;
13951;SDS011;39535;52.192;9.886;2022-08-06T07:33:56;1.80;;;1.10;;
13951;SDS011;39535;52.192;9.886;2022-08-06T07:36:24;1.00;;;0.77;;
13951;SDS011;39535;52.192;9.886;2022-08-06T07:38:54;1.23;;;0.83;;
13951;SDS011;39535;52.192;9.886;2022-08-06T07:41:24;2.40;;;0.80;;
13951;SDS011;39535;52.192;9.886;2022-08-06T07:43:53;1.00;;;0.60;;
13951;SDS011;39535;52.192;9.886;2022-08-06T07:46:22;1.43;;;0.80;;
13951;SDS011;39535;52.192;9.886;2022-08-06T07:48:54;0.87;;;0.80;;
13951;SDS011;39535;52.192;9.886;2022-08-06T07:51:23;2.00;;;0.90;;
13951;SDS011;39535;52.192;9.886;2022-08-06T07:53:53;0.67;;;0.50;;
13951;SDS011;39535;52.192;9.886;2022-08-06T07:56:20;1.47;;;0.93;;
13951;SDS011;39535;52.192;9.886;2022-08-06T07:58:48;1.27;;;0.90;;
13951;SDS011;39535;52.192;9.886;2022-08-06T08:01:15;1.27;;;0.77;;
13951;SDS011;39535;52.192;9.886;2022-08-06T08:03:44;0.87;;;0.50;;
13951;SDS011;39535;52.192;9.886;2022-08-06T08:06:29;4.00;;;0.60;;
13951;SDS011;39535;52.192;9.886;2022-08-06T08:09:04;1.00;;;0.47;;
13951;SDS011;39535;52.192;9.886;2022-08-06T08:11:34;1.50;;;0.60;;
13951;SDS011;39535;52.192;9.886;2022-08-06T08:14:06;1.87;;;0.40;;
13951;SDS011;39535;52.192;9.886;2022-08-06T08:16:34;3.13;;;0.70;;
13951;SDS011;39535;52.192;9.886;2022-08-06T08:19:02;2.87;;;1.07;;
13951;SDS011;39535;52.192;9.886;2022-08-06T08:21:29;1.73;;;0.60;;
13951;SDS011;39535;52.192;9.886;2022-08-06T08:23:56;1.67;;;0.57;;
13951;SDS011;39535;52.192;9.886;2022-08-06T08:26:22;1.20;;;0.40;;
13951;SDS011;39535;52.192;9.886;2022-08-06T08:28:49;1.07;;;0.40;;
13951;SDS011;39535;52.192;9.886;2022-08-06T08:31:15;0.87;;;0.50;;
13951;SDS011;39535;52.192;9.886;2022-08-06T08:33:42;0.97;;;0.60;;
13951;SDS011;39535;52.192;9.886;2022-08-06T08:36:09;2.63;;;0.60;;
13951;SDS011;39535;52.192;9.886;2022-08-06T08:38:36;0.70;;;0.30;;
13951;SDS011;39535;52.192;9.886;2022-08-06T08:41:04;0.60;;;0.40;;
13951;SDS011;39535;52.192;9.886;2022-08-06T08:43:39;0.97;;;0.63;;
13951;SDS011;39535;52.192;9.886;2022-08-06T08:46:09;0.30;;;0.30;;
13951;SDS011;39535;52.192;9.886;2022-08-06T08:48:38;0.97;;;0.67;;
13951;SDS011;39535;52.192;9.886;2022-08-06T08:51:06;1.10;;;0.50;;
13951;SDS011;39535;52.192;9.886;2022-08-06T08:53:37;0.70;;;0.40;;
13951;SDS011;39535;52.192;9.886;2022-08-06T08:56:08;0.57;;;0.30;;
13951;SDS011;39535;52.192;9.886;2022-08-06T08:58:35;1.33;;;0.30;;
13951;SDS011;39535;52.192;9.886;2022-08-06T09:01:05;0.77;;;0.30;;
13951;SDS011;39535;52.192;9.886;2022-08-06T09:03:34;1.60;;;0.40;;
13951;SDS011;39535;52.192;9.886;2022-08-06T09:06:01;0.60;;;0.40;;
13951;SDS011;39535;52.192;9.886;2022-08-06T09:08:29;3.67;;;0.70;;
13951;SDS011;39535;52.192;9.886;2022-08-06T09:10:58;0.70;;;0.30;;
13951;SDS011;39535;52.192;9.886;2022-08-06T09:13:24;0.40;;;0.40;;
13951;SDS011;39535;52.192;9.886;2022-08-06T09:15:51;0.53;;;0.30;;
13951;SDS011;39535;52.192;9.886;2022-08-06T09:18:18;2.20;;;0.50;;
13951;SDS011;39535;52.192;9.886;2022-08-06T09:20:45;0.80;;;0.37;;
13951;SDS011;39535;52.192;9.886;2022-08-06T09:23:13;0.30;;;0.30;;
13951;SDS011;39535;52.192;9.886;2022-08-06T09:25:42;0.50;;;0.50;;
13951;SDS011;39535;52.192;9.886;2022-08-06T09:28:11;0.73;;;0.40;;
13951;SDS011;39535;52.192;9.886;2022-08-06T09:30:56;0.93;;;0.30;;
13951;SDS011;39535;52.192;9.886;2022-08-06T09:33:24;1.13;;;0.40;;
13951;SDS011;39535;52.192;9.886;2022-08-06T09:35:56;1.17;;;0.30;;
13951;SDS011;39535;52.192;9.886;2022-08-06T09:38:24;1.13;;;0.50;;
13951;SDS011;39535;52.192;9.886;2022-08-06T09:41:03;0.33;;;0.33;;
13951;SDS011;39535;52.192;9.886;2022-08-06T09:43:36;1.30;;;0.40;;
13951;SDS011;39535;52.192;9.886;2022-08-06T09:46:03;1.83;;;0.30;;
13951;SDS011;39535;52.192;9.886;2022-08-06T09:48:30;0.60;;;0.30;;
13951;SDS011;39535;52.192;9.886;2022-08-06T09:50:56;0.53;;;0.47;;
13951;SDS011;39535;52.192;9.886;2022-08-06T09:53:23;0.50;;;0.40;;
13951;SDS011;39535;52.192;9.886;2022-08-06T09:55:50;1.17;;;0.60;;
13951;SDS011;39535;52.192;9.886;2022-08-06T09:58:28;1.37;;;0.60;;
13951;SDS011;39535;52.192;9.886;2022-08-06T10:00:57;2.47;;;0.73;;
13951;SDS011;39535;52.192;9.886;2022-08-06T10:03:40;0.97;;;0.40;;
13951;SDS011;39535;52.192;9.886;2022-08-06T10:06:08;0.70;;;0.30;;
13951;SDS011;39535;52.192;9.886;2022-08-06T10:08:36;0.40;;;0.40;;
13951;SDS011;39535;52.192;9.886;2022-08-06T10:11:03;1.27;;;0.40;;
13951;SDS011;39535;52.192;9.886;2022-08-06T10:13:30;1.87;;;0.50;;
13951;SDS011;39535;52.192;9.886;2022-08-06T10:15:59;2.00;;;0.40;;
13951;SDS011;39535;52.192;9.886;2022-08-06T10:18:34;0.90;;;0.50;;
13951;SDS011;39535;52.192;9.886;2022-08-06T10:21:03;1.40;;;0.70;;
13951;SDS011;39535;52.192;9.886;2022-08-06T10:23:32;0.50;;;0.47;;
13951;SDS011;39535;52.192;9.886;2022-08-06T10:26:00;2.27;;;0.53;;
13951;SDS011;39535;52.192;9.886;2022-08-06T10:28:28;1.13;;;0.70;;
13951;SDS011;39535;52.192;9.886;2022-08-06T10:30:59;0.83;;;0.40;;
13951;SDS011;39535;52.192;9.886;2022-08-06T10:33:28;0.57;;;0.50;;
13951;SDS011;39535;52.192;9.886;2022-08-06T10:36:03;0.73;;;0.30;;
13951;SDS011;39535;52.192;9.886;2022-08-06T10:38:34;0.77;;;0.47;;
13951;SDS011;39535;52.192;9.886;2022-08-06T10:41:03;0.47;;;0.40;;
13951;SDS011;39535;52.192;9.886;2022-08-06T10:43:34;1.60;;;0.50;;
13951;SDS011;39535;52.192;9.886;2022-08-06T10:46:05;0.90;;;0.50;;
13951;SDS011;39535;52.192;9.886;2022-08-06T10:48:33;1.20;;;0.40;;
13951;SDS011;39535;52.192;9.886;2022-08-06T10:51:01;0.40;;;0.40;;
13951;SDS011;39535;52.192;9.886;2022-08-06T10:53:29;2.00;;;0.67;;
13951;SDS011;39535;52.192;9.886;2022-08-06T10:55:59;1.13;;;0.50;;
13951;SDS011;39535;52.192;9.886;2022-08-06T10:58:26;1.50;;;0.50;;
13951;SDS011;39535;52.192;9.886;2022-08-06T11:00:54;0.40;;;0.40;;
13951;SDS011;39535;52.192;9.886;2022-08-06T11:03:24;0.93;;;0.40;;
13951;SDS011;39535;52.192;9.886;2022-08-06T11:06:09;2.03;;;0.40;;
13951;SDS011;39535;52.192;9.886;2022-08-06T11:08:51;0.77;;;0.50;;
13951;SDS011;39535;52.192;9.886;2022-08-06T11:11:32;1.23;;;0.50;;
13951;SDS011;39535;52.192;9.886;2022-08-06T11:14:08;1.37;;;0.30;;
13951;SDS011;39535;52.192;9.886;2022-08-06T11:16:36;0.40;;;0.37;;
13951;SDS011;39535;52.192;9.886;2022-08-06T11:19:06;0.83;;;0.40;;
13951;SDS011;39535;52.192;9.886;2022-08-06T11:21:37;0.47;;;0.40;;
13951;SDS011;39535;52.192;9.886;2022-08-06T11:24:05;1.03;;;0.50;;
13951;SDS011;39535;52.192;9.886;2022-08-06T11:26:33;0.33;;;0.33;;
13951;SDS011;39535;52.192;9.886;2022-08-06T11:29:02;0.43;;;0.40;;
13951;SDS011;39535;52.192;9.886;2022-08-06T11:31:31;1.47;;;0.40;;
13951;SDS011;39535;52.192;9.886;2022-08-06T11:33:59;1.63;;;0.50;;
13951;SDS011;39535;52.192;9.886;2022-08-06T11:36:28;2.20;;;0.40;;
13951;SDS011;39535;52.192;9.886;2022-08-06T11:39:09;0.27;;;0.20;;
13951;SDS011;39535;52.192;9.886;2022-08-06T11:41:42;0.40;;;0.40;;
13951;SDS011;39535;52.192;9.886;2022-08-06T11:44:10;0.40;;;0.30;;
13951;SDS011;39535;52.192;9.886;2022-08-06T11:46:40;0.27;;;0.27;;
13951;SDS011;39535;52.192;9.886;2022-08-06T11:49:11;0.60;;;0.40;;
13951;SDS011;39535;52.192;9.886;2022-08-06T11:51:50;0.43;;;0.20;;
13951;SDS011;39535;52.192;9.886;2022-08-06T11:54:19;0.67;;;0.33;;
13951;SDS011;39535;52.192;9.886;2022-08-06T11:59:44;0.80;;;0.40;;
13951;SDS011;39535;52.192;9.886;2022-08-06T12:02:13;1.27;;;0.73;;
13951;SDS011;39535;52.192;9.886;2022-08-06T12:04:42;0.60;;;0.43;;
13951;SDS011;39535;52.192;9.886;2022-08-06T12:07:18;0.90;;;0.53;;
13951;SDS011;39535;52.192;9.886;2022-08-06T12:09:47;0.67;;;0.37;;
13951;SDS011;39535;52.192;9.886;2022-08-06T12:12:31;0.47;;;0.40;;
13951;SDS011;39535;52.192;9.886;2022-08-06T12:14:59;0.50;;;0.50;;
13951;SDS011;39535;52.192;9.886;2022-08-06T12:17:26;0.87;;;0.47;;
13951;SDS011;39535;52.192;9.886;2022-08-06T12:19:54;2.37;;;0.40;;
13951;SDS011;39535;52.192;9.886;2022-08-06T12:22:23;0.87;;;0.37;;
13951;SDS011;39535;52.192;9.886;2022-08-06T12:24:51;1.03;;;0.30;;
13951;SDS011;39535;52.192;9.886;2022-08-06T12:27:20;0.33;;;0.30;;
13951;SDS011;39535;52.192;9.886;2022-08-06T12:29:47;0.60;;;0.30;;
13951;SDS011;39535;52.192;9.886;2022-08-06T12:32:20;0.37;;;0.37;;
13951;SDS011;39535;52.192;9.886;2022-08-06T12:34:48;0.50;;;0.40;;
13951;SDS011;39535;52.192;9.886;2022-08-06T12:37:15;0.67;;;0.40;;
13951;SDS011;39535;52.192;9.886;2022-08-06T12:39:43;0.90;;;0.40;;
13951;SDS011;39535;52.192;9.886;2022-08-06T12:42:30;0.90;;;0.30;;
13951;SDS011;39535;52.192;9.886;2022-08-06T12:44:57;0.50;;;0.50;;
13951;SDS011;39535;52.192;9.886;2022-08-06T12:47:24;2.23;;;0.67;;
13951;SDS011;39535;52.192;9.886;2022-08-06T12:49:51;0.60;;;0.40;;
13951;SDS011;39535;52.192;9.886;2022-08-06T12:52:18;0.70;;;0.37;;
13951;SDS011;39535;52.192;9.886;2022-08-06T12:54:48;0.30;;;0.30;;
13951;SDS011;39535;52.192;9.886;2022-08-06T12:57:21;0.93;;;0.37;;
13951;SDS011;39535;52.192;9.886;2022-08-06T12:59:49;0.27;;;0.27;;
13951;SDS011;39535;52.192;9.886;2022-08-06T13:02:16;0.60;;;0.40;;
13951;SDS011;39535;52.192;9.886;2022-08-06T13:04:46;0.70;;;0.40;;
13951;SDS011;39535;52.192;9.886;2022-08-06T13:07:16;1.27;;;0.43;;
13951;SDS011;39535;52.192;9.886;2022-08-06T13:09:44;0.60;;;0.30;;
13951;SDS011;39535;52.192;9.886;2022-08-06T13:12:13;0.30;;;0.30;;
13951;SDS011;39535;52.192;9.886;2022-08-06T13:14:50;0.57;;;0.40;;
13951;SDS011;39535;52.192;9.886;2022-08-06T13:17:19;0.60;;;0.30;;
13951;SDS011;39535;52.192;9.886;2022-08-06T13:19:49;0.67;;;0.40;;
13951;SDS011;39535;52.192;9.886;2022-08-06T13:22:17;0.20;;;0.20;;
13951;SDS011;39535;52.192;9.886;2022-08-06T13:24:44;0.30;;;0.30;;
13951;SDS011;39535;52.192;9.886;2022-08-06T13:27:10;1.07;;;0.30;;
13951;SDS011;39535;52.192;9.886;2022-08-06T13:29:47;0.43;;;0.30;;
13951;SDS011;39535;52.192;9.886;2022-08-06T13:32:25;0.73;;;0.30;;
13951;SDS011;39535;52.192;9.886;2022-08-06T13:34:53;0.20;;;0.20;;
13951;SDS011;39535;52.192;9.886;2022-08-06T13:37:40;0.30;;;0.20;;
13951;SDS011;39535;52.192;9.886;2022-08-06T13:40:07;0.30;;;0.30;;
13951;SDS011;39535;52.192;9.886;2022-08-06T13:42:46;0.20;;;0.20;;
13951;SDS011;39535;52.192;9.886;2022-08-06T13:45:22;0.20;;;0.20;;
13951;SDS011;39535;52.192;9.886;2022-08-06T13:47:50;0.30;;;0.30;;
13951;SDS011;39535;52.192;9.886;2022-08-06T13:50:17;0.63;;;0.20;;
13951;SDS011;39535;52.192;9.886;2022-08-06T13:52:44;0.67;;;0.37;;
13951;SDS011;39535;52.192;9.886;2022-08-06T13:55:11;1.97;;;0.30;;
13951;SDS011;39535;52.192;9.886;2022-08-06T13:57:37;0.30;;;0.20;;
13951;SDS011;39535;52.192;9.886;2022-08-06T14:00:04;1.23;;;0.30;;
13951;SDS011;39535;52.192;9.886;2022-08-06T14:02:33;0.33;;;0.30;;
13951;SDS011;39535;52.192;9.886;2022-08-06T14:05:00;0.47;;;0.30;;
13951;SDS011;39535;52.192;9.886;2022-08-06T14:07:28;0.20;;;0.20;;
13951;SDS011;39535;52.192;9.886;2022-08-06T14:09:55;0.50;;;0.40;;
13951;SDS011;39535;52.192;9.886;2022-08-06T14:12:21;0.30;;;0.20;;
13951;SDS011;39535;52.192;9.886;2022-08-06T14:14:47;0.50;;;0.27;;
13951;SDS011;39535;52.192;9.886;2022-08-06T14:17:14;0.40;;;0.30;;
13951;SDS011;39535;52.192;9.886;2022-08-06T14:19:43;1.00;;;0.30;;
13951;SDS011;39535;52.192;9.886;2022-08-06T14:22:09;0.70;;;0.30;;
13951;SDS011;39535;52.192;9.886;2022-08-06T14:24:36;0.20;;;0.20;;
13951;SDS011;39535;52.192;9.886;2022-08-06T14:27:02;0.30;;;0.30;;
13951;SDS011;39535;52.192;9.886;2022-08-06T14:29:29;0.70;;;0.30;;
13951;SDS011;39535;52.192;9.886;2022-08-06T14:31:56;0.67;;;0.50;;
13951;SDS011;39535;52.192;9.886;2022-08-06T14:34:22;0.83;;;0.27;;
13951;SDS011;39535;52.192;9.886;2022-08-06T14:36:50;0.63;;;0.40;;
13951;SDS011;39535;52.192;9.886;2022-08-06T14:39:17;1.03;;;0.43;;
13951;SDS011;39535;52.192;9.886;2022-08-06T14:41:43;0.70;;;0.20;;
13951;SDS011;39535;52.192;9.886;2022-08-06T14:44:27;0.63;;;0.40;;
13951;SDS011;39535;52.192;9.886;2022-08-06T14:47:11;0.57;;;0.20;;
13951;SDS011;39535;52.192;9.886;2022-08-06T14:49:37;1.20;;;0.30;;
13951;SDS011;39535;52.192;9.886;2022-08-06T14:52:06;0.30;;;0.30;;
13951;SDS011;39535;52.192;9.886;2022-08-06T14:54:33;0.60;;;0.20;;
13951;SDS011;39535;52.192;9.886;2022-08-06T14:57:00;0.30;;;0.30;;
13951;SDS011;39535;52.192;9.886;2022-08-06T14:59:28;0.37;;;0.37;;
13951;SDS011;39535;52.192;9.886;2022-08-06T15:01:54;0.30;;;0.30;;
13951;SDS011;39535;52.192;9.886;2022-08-06T15:04:21;0.40;;;0.20;;
13951;SDS011;39535;52.192;9.886;2022-08-06T15:06:48;0.63;;;0.30;;
13951;SDS011;39535;52.192;9.886;2022-08-06T15:09:15;0.80;;;0.30;;